createdAt,value
2023-04-23T06:21:04.635Z,10.01
2023-04-23T06:31:04.637Z,10.01
2023-04-23T06:41:04.725Z,10.02
2023-04-23T06:51:04.783Z,10.17
2023-04-23T07:01:04.702Z,10.19
2023-04-23T07:11:04.749Z,10.24
2023-04-23T07:21:04.595Z,10.55
2023-04-23T07:31:04.626Z,10.76
2023-04-23T07:41:04.732Z,11.25
2023-04-23T07:51:04.713Z,11.70
2023-04-23T08:01:04.866Z,11.99
2023-04-23T08:11:04.734Z,13.35
2023-04-23T08:21:04.887Z,14.40
2023-04-23T08:31:15.104Z,14.21
2023-04-23T08:41:04.963Z,13.35
2023-04-23T08:51:04.821Z,13.71
2023-04-23T09:01:04.913Z,14.34
2023-04-23T09:11:04.924Z,14.59
2023-04-23T09:21:04.975Z,15.49
2023-04-23T09:31:04.921Z,15.60
2023-04-23T09:41:04.802Z,15.09
2023-04-23T09:51:04.782Z,15.82
2023-04-23T10:01:05.099Z,15.71
2023-04-23T10:11:20.144Z,16.29
2023-04-23T10:21:04.979Z,16.40
2023-04-23T10:31:04.889Z,16.32
2023-04-23T10:41:04.900Z,17.00
2023-04-23T10:51:30.584Z,17.47
2023-04-23T11:01:04.930Z,16.98
2023-04-23T11:11:04.904Z,17.10
2023-04-23T11:21:04.754Z,17.47
2023-04-23T11:31:04.934Z,18.34
2023-04-23T11:41:04.887Z,18.43
2023-04-23T11:51:05.165Z,17.44
2023-04-23T12:01:05.123Z,17.81
2023-04-23T12:11:05.084Z,18.72
2023-04-23T12:21:04.950Z,18.50
2023-04-23T12:31:05.237Z,19.24
2023-04-23T12:41:04.992Z,18.24
2023-04-23T12:51:05.250Z,19.03
2023-04-23T13:01:04.979Z,18.24
2023-04-23T13:11:04.993Z,17.63
2023-04-23T13:21:05.245Z,16.81
2023-04-23T13:31:05.115Z,17.29
2023-04-23T13:41:05.278Z,17.27
2023-04-23T13:51:13.598Z,17.25
2023-04-23T14:01:05.095Z,17.00
2023-04-23T14:11:05.190Z,15.28
2023-04-23T14:21:05.134Z,14.86
2023-04-23T14:31:05.311Z,14.52
2023-04-23T14:41:05.155Z,13.54
2023-04-23T14:51:05.125Z,12.65
2023-04-23T15:01:06.942Z,13.18
2023-04-23T15:11:05.272Z,13.30
2023-04-23T15:21:05.328Z,14.12
2023-04-23T15:31:05.192Z,14.61
2023-04-23T15:41:05.473Z,15.22
2023-04-23T15:51:05.345Z,16.06
2023-04-23T16:01:05.394Z,15.89
2023-04-23T16:11:05.243Z,16.23
2023-04-23T16:21:05.420Z,15.75
2023-04-23T16:31:05.340Z,15.85
2023-04-23T16:41:05.469Z,15.66
2023-04-23T16:51:05.429Z,15.40
2023-04-23T17:01:05.296Z,15.50
2023-04-23T17:11:05.350Z,15.29
2023-04-23T17:21:05.419Z,14.89
2023-04-23T17:31:05.681Z,14.69
2023-04-23T17:41:05.534Z,14.51
2023-04-23T17:51:05.604Z,14.27
2023-04-23T18:01:05.689Z,14.35
2023-04-23T18:11:05.442Z,14.04
2023-04-23T18:21:05.387Z,13.61
2023-04-23T18:31:05.731Z,13.67
2023-04-23T18:41:05.732Z,13.52
2023-04-23T18:51:05.944Z,13.20
2023-04-23T19:01:05.867Z,12.63
2023-04-23T19:11:06.289Z,12.38
2023-04-23T19:21:06.103Z,12.08
